Time;durP1;ratioP1;P1;durP2;ratioP2;P2;SDS_P1;SDS_P2;PMS_P1;PMS_P2;Temp;Humidity;BMP_temperature;BMP_pressure;BME280_temperature;BME280_humidity;BME280_pressure;Samples;Min_cycle;Max_cycle;Signal;HPM_P1;HPM_P2
2021/05/10 00:00:32;;;;;;;7.03;5.68;;;;;;;;;;1473105;40;20435;-81
2021/05/10 00:01:33;;;;;;;7.32;6.30;;;;;;;;;;1474328;40;20430;-81
2021/05/10 00:02:34;;;;;;;8.45;6.63;;;;;;;;;;1478483;40;20394;-81
2021/05/10 00:03:36;;;;;;;7.22;6.32;;;;;;;;;;1478697;40;20511;-82
2021/05/10 00:04:37;;;;;;;6.80;6.13;;;;;;;;;;1478730;40;20430;-82
2021/05/10 00:05:38;;;;;;;6.70;6.10;;;;;;;;;;1478518;40;20406;-82
2021/05/10 00:06:39;;;;;;;6.85;5.80;;;;;;;;;;1478482;40;20410;-81
2021/05/10 00:07:42;;;;;;;8.30;6.40;;;;;;;;;;1474065;40;20818;-82
2021/05/10 00:08:43;;;;;;;6.43;5.80;;;;;;;;;;1473272;40;20427;-81
2021/05/10 00:09:45;;;;;;;7.22;6.25;;;;;;;;;;1471558;40;20497;-81
2021/05/10 00:10:46;;;;;;;6.68;5.95;;;;;;;;;;1469939;40;20418;-81
2021/05/10 00:11:47;;;;;;;6.97;5.90;;;;;;;;;;1469928;40;20819;-81
2021/05/10 00:12:48;;;;;;;6.53;5.95;;;;;;;;;;1477873;40;21182;-83
2021/05/10 00:13:50;;;;;;;7.67;6.13;;;;;;;;;;1472987;40;20638;-82
2021/05/10 00:14:52;;;;;;;8.43;5.63;;;;;;;;;;1468734;40;20878;-82
2021/05/10 00:15:53;;;;;;;7.55;6.82;;;;;;;;;;1472522;40;20713;-82
2021/05/10 00:16:54;;;;;;;6.37;5.67;;;;;;;;;;1474863;40;20944;-82
2021/05/10 00:18:04;;;;;;;8.27;5.97;;;;;;;;;;1474391;40;20400;-81
2021/05/10 00:19:06;;;;;;;7.35;6.10;;;;;;;;;;1474341;40;20399;-82
2021/05/10 00:20:07;;;;;;;6.88;5.90;;;;;;;;;;1469518;40;20501;-82
2021/05/10 00:21:09;;;;;;;6.82;6.13;;;;;;;;;;1465876;40;20415;-82
2021/05/10 00:22:10;;;;;;;6.90;5.78;;;;;;;;;;1465906;40;20412;-82
2021/05/10 00:23:12;;;;;;;6.47;5.32;;;;;;;;;;1467455;40;20417;-82
2021/05/10 00:24:13;;;;;;;5.80;5.30;;;;;;;;;;1472027;40;20402;-82
2021/05/10 00:25:14;;;;;;;5.25;4.85;;;;;;;;;;1473694;40;20452;-82
2021/05/10 00:26:15;;;;;;;9.43;6.10;;;;;;;;;;1473494;40;20431;-81
2021/05/10 00:27:16;;;;;;;9.07;5.47;;;;;;;;;;1478604;40;20402;-82
2021/05/10 00:28:19;;;;;;;5.50;5.00;;;;;;;;;;1478509;40;20433;-82
2021/05/10 00:29:20;;;;;;;10.07;6.20;;;;;;;;;;1478438;40;20425;-82
2021/05/10 00:30:23;;;;;;;5.60;5.10;;;;;;;;;;1474149;40;20539;-82
2021/05/10 00:31:24;;;;;;;7.13;5.22;;;;;;;;;;1469984;40;20432;-82
2021/05/10 00:32:25;;;;;;;5.70;5.20;;;;;;;;;;1469627;40;20807;-82
2021/05/10 00:33:31;;;;;;;8.98;6.00;;;;;;;;;;1470082;40;20519;-82
2021/05/10 00:34:32;;;;;;;6.75;6.07;;;;;;;;;;1474598;40;20432;-82
2021/05/10 00:35:34;;;;;;;6.25;5.55;;;;;;;;;;1473759;40;20424;-83
2021/05/10 00:36:35;;;;;;;7.43;5.63;;;;;;;;;;1468328;40;20873;-82
2021/05/10 00:37:36;;;;;;;6.72;5.55;;;;;;;;;;1469865;40;20918;-82
2021/05/10 00:38:37;;;;;;;5.72;5.13;;;;;;;;;;1468610;40;20427;-81
2021/05/10 00:39:38;;;;;;;6.47;5.88;;;;;;;;;;1472144;40;20432;-82
2021/05/10 00:40:39;;;;;;;6.20;5.40;;;;;;;;;;1477592;40;20410;-82
2021/05/10 00:41:40;;;;;;;7.50;5.72;;;;;;;;;;1474127;40;20423;-82
2021/05/10 00:42:41;;;;;;;5.82;5.32;;;;;;;;;;1471694;40;20388;-82
2021/05/10 00:43:42;;;;;;;6.10;5.03;;;;;;;;;;1473812;40;20406;-82
2021/05/10 00:44:44;;;;;;;10.15;6.40;;;;;;;;;;1473661;40;20464;-82
2021/05/10 00:45:45;;;;;;;6.20;5.45;;;;;;;;;;1474102;40;20434;-82
2021/05/10 00:46:46;;;;;;;6.70;5.82;;;;;;;;;;1473828;40;20777;-81
2021/05/10 00:47:47;;;;;;;6.80;5.70;;;;;;;;;;1469943;40;20696;-82
2021/05/10 00:48:48;;;;;;;6.25;5.05;;;;;;;;;;1474069;40;20428;-81
2021/05/10 00:49:49;;;;;;;5.90;5.10;;;;;;;;;;1477873;40;20418;-82
2021/05/10 00:50:50;;;;;;;5.30;4.80;;;;;;;;;;1470687;40;20405;-82
2021/05/10 00:51:52;;;;;;;6.55;4.72;;;;;;;;;;1470154;40;20420;-81
2021/05/10 00:52:53;;;;;;;9.55;4.85;;;;;;;;;;1474555;40;20633;-82
2021/05/10 00:53:54;;;;;;;5.15;4.75;;;;;;;;;;1469620;40;20690;-82
2021/05/10 00:54:55;;;;;;;5.53;4.93;;;;;;;;;;1473095;40;20558;-82
2021/05/10 00:55:56;;;;;;;6.43;4.88;;;;;;;;;;1476371;40;20531;-82
2021/05/10 00:56:57;;;;;;;4.80;4.38;;;;;;;;;;1472968;40;20419;-81
2021/05/10 00:58:02;;;;;;;6.40;5.00;;;;;;;;;;1473778;40;20395;-82
2021/05/10 00:59:04;;;;;;;6.95;4.90;;;;;;;;;;1473347;40;20423;-82
2021/05/10 01:00:07;;;;;;;7.05;4.63;;;;;;;;;;1470043;40;20795;-82
2021/05/10 01:01:08;;;;;;;4.63;4.13;;;;;;;;;;1469699;40;20712;-82
2021/05/10 01:02:09;;;;;;;5.00;4.60;;;;;;;;;;1469787;40;20712;-82
2021/05/10 01:03:11;;;;;;;5.70;4.35;;;;;;;;;;1475853;40;20419;-82
2021/05/10 01:04:12;;;;;;;6.47;3.90;;;;;;;;;;1477357;40;20418;-82
2021/05/10 01:05:14;;;;;;;4.38;3.80;;;;;;;;;;1470449;40;20421;-83
2021/05/10 01:06:16;;;;;;;6.15;3.33;;;;;;;;;;1474999;40;20440;-82
2021/05/10 01:07:17;;;;;;;8.98;4.20;;;;;;;;;;1483986;40;20417;-83
2021/05/10 01:08:18;;;;;;;6.22;3.67;;;;;;;;;;1484078;40;20413;-83
2021/05/10 01:09:20;;;;;;;3.92;3.63;;;;;;;;;;1477668;40;20422;-83
2021/05/10 01:10:22;;;;;;;3.70;3.38;;;;;;;;;;1480423;40;20497;-82
2021/05/10 01:11:23;;;;;;;5.18;3.40;;;;;;;;;;1484208;39;20422;-82
2021/05/10 01:12:25;;;;;;;4.63;3.45;;;;;;;;;;1474848;40;20424;-82
2021/05/10 01:13:27;;;;;;;9.65;3.50;;;;;;;;;;1474310;40;20728;-82
2021/05/10 01:14:28;;;;;;;4.50;3.38;;;;;;;;;;1478443;40;20423;-82
2021/05/10 01:15:30;;;;;;;5.32;4.40;;;;;;;;;;1475241;40;20412;-82
2021/05/10 01:16:31;;;;;;;4.28;3.83;;;;;;;;;;1479339;40;20835;-81
2021/05/10 01:17:34;;;;;;;7.78;4.30;;;;;;;;;;1478688;40;20429;-82
2021/05/10 01:18:35;;;;;;;4.75;3.35;;;;;;;;;;1479103;40;20411;-82
2021/05/10 01:19:36;;;;;;;5.28;3.67;;;;;;;;;;1474174;40;20657;-82
2021/05/10 01:20:40;;;;;;;5.05;3.60;;;;;;;;;;1469921;40;20524;-81
2021/05/10 01:21:43;;;;;;;3.97;3.53;;;;;;;;;;1474544;40;20432;-82
2021/05/10 01:22:46;;;;;;;5.13;3.97;;;;;;;;;;1478673;40;20426;-82
2021/05/10 01:23:48;;;;;;;6.03;4.38;;;;;;;;;;1476598;40;20445;-82
2021/05/10 01:24:49;;;;;;;4.40;3.70;;;;;;;;;;1477561;40;20757;-82
2021/05/10 01:25:50;;;;;;;6.05;3.90;;;;;;;;;;1474487;40;20423;-82
2021/05/10 01:26:53;;;;;;;6.10;4.07;;;;;;;;;;1474673;40;20501;-82
2021/05/10 01:27:56;;;;;;;4.40;4.00;;;;;;;;;;1474826;40;20741;-82
2021/05/10 01:28:58;;;;;;;6.85;3.97;;;;;;;;;;1478647;40;20413;-82
2021/05/10 01:29:59;;;;;;;5.82;4.10;;;;;;;;;;1473723;40;20415;-82
2021/05/10 01:31:00;;;;;;;4.60;4.10;;;;;;;;;;1474252;40;20400;-82
2021/05/10 01:32:02;;;;;;;6.47;4.55;;;;;;;;;;1469261;40;20426;-81
2021/05/10 01:33:05;;;;;;;5.72;4.13;;;;;;;;;;1465736;40;20535;-81
2021/05/10 01:34:06;;;;;;;5.05;4.35;;;;;;;;;;1469896;40;20410;-82
2021/05/10 01:35:11;;;;;;;5.18;4.30;;;;;;;;;;1473820;40;20415;-81
2021/05/10 01:36:12;;;;;;;6.68;4.65;;;;;;;;;;1465577;40;20526;-83
2021/05/10 01:37:14;;;;;;;7.57;4.80;;;;;;;;;;1465796;40;20459;-83
2021/05/10 01:38:17;;;;;;;8.45;4.63;;;;;;;;;;1465570;40;20478;-83
2021/05/10 01:39:18;;;;;;;7.32;4.50;;;;;;;;;;1469477;40;20425;-83
2021/05/10 01:40:19;;;;;;;8.82;4.40;;;;;;;;;;1472894;40;20650;-83
2021/05/10 01:41:20;;;;;;;7.20;4.60;;;;;;;;;;1469976;40;20460;-83
2021/05/10 01:42:22;;;;;;;6.88;4.82;;;;;;;;;;1468953;40;20831;-82
2021/05/10 01:43:23;;;;;;;5.85;4.18;;;;;;;;;;1469622;40;20406;-82
2021/05/10 01:44:24;;;;;;;4.63;4.15;;;;;;;;;;1460874;40;20826;-82
2021/05/10 01:45:26;;;;;;;7.80;4.60;;;;;;;;;;1469010;40;20457;-83
2021/05/10 01:46:27;;;;;;;8.18;3.55;;;;;;;;;;1469757;40;20460;-83
2021/05/10 01:47:28;;;;;;;6.22;4.47;;;;;;;;;;1465745;40;20414;-81
2021/05/10 01:48:29;;;;;;;5.50;3.72;;;;;;;;;;1469673;40;20480;-81
2021/05/10 01:49:31;;;;;;;7.20;4.22;;;;;;;;;;1473750;40;20468;-82
2021/05/10 01:50:33;;;;;;;5.03;3.90;;;;;;;;;;1469561;40;20489;-82
2021/05/10 01:51:36;;;;;;;7.68;4.00;;;;;;;;;;1470399;40;20430;-81
2021/05/10 01:52:37;;;;;;;6.10;3.45;;;;;;;;;;1477614;40;20445;-82
2021/05/10 01:53:39;;;;;;;4.03;3.65;;;;;;;;;;1470046;40;20425;-81
2021/05/10 01:54:46;;;;;;;5.50;4.30;;;;;;;;;;1472210;40;20491;-81
2021/05/10 01:55:48;;;;;;;5.78;3.65;;;;;;;;;;1477791;40;20658;-81
2021/05/10 01:56:49;;;;;;;4.72;3.78;;;;;;;;;;1473626;40;20415;-81
2021/05/10 01:57:53;;;;;;;4.57;3.25;;;;;;;;;;1473725;40;20416;-81
2021/05/10 01:58:54;;;;;;;6.77;3.70;;;;;;;;;;1478045;40;20387;-81
2021/05/10 01:59:55;;;;;;;5.90;3.75;;;;;;;;;;1478038;40;20414;-81
2021/05/10 02:00:56;;;;;;;5.95;3.65;;;;;;;;;;1473344;40;20898;-81
2021/05/10 02:01:57;;;;;;;4.80;3.88;;;;;;;;;;1473805;40;20406;-81
2021/05/10 02:03:02;;;;;;;7.32;4.15;;;;;;;;;;1478210;40;20445;-81
2021/05/10 02:04:03;;;;;;;8.35;4.07;;;;;;;;;;1473866;40;20404;-81
2021/05/10 02:05:14;;;;;;;5.07;4.05;;;;;;;;;;1469998;40;20413;-82
2021/05/10 02:06:15;;;;;;;5.45;3.63;;;;;;;;;;1473772;40;20411;-82
2021/05/10 02:07:16;;;;;;;5.65;3.83;;;;;;;;;;1474093;40;20420;-82
2021/05/10 02:08:18;;;;;;;5.45;3.85;;;;;;;;;;1474410;40;20523;-82
2021/05/10 02:09:23;;;;;;;7.72;3.88;;;;;;;;;;1470827;40;20409;-81
2021/05/10 02:10:27;;;;;;;6.07;3.78;;;;;;;;;;1470135;40;20397;-81
2021/05/10 02:11:28;;;;;;;5.40;3.70;;;;;;;;;;1469701;40;20893;-82
2021/05/10 02:12:29;;;;;;;6.72;3.72;;;;;;;;;;1474006;40;20411;-81
2021/05/10 02:13:31;;;;;;;7.20;3.97;;;;;;;;;;1474003;40;20886;-81
2021/05/10 02:14:32;;;;;;;5.40;3.58;;;;;;;;;;1469581;40;20456;-82
2021/05/10 02:15:36;;;;;;;5.40;3.50;;;;;;;;;;1469767;40;20421;-81
2021/05/10 02:16:37;;;;;;;4.57;3.58;;;;;;;;;;1469858;40;20428;-81
2021/05/10 02:17:39;;;;;;;5.35;3.70;;;;;;;;;;1471805;40;20896;-82
2021/05/10 02:18:40;;;;;;;6.07;3.70;;;;;;;;;;1478343;40;20429;-84
2021/05/10 02:19:41;;;;;;;6.43;3.60;;;;;;;;;;1478210;40;20477;-82
2021/05/10 02:20:43;;;;;;;7.23;3.47;;;;;;;;;;1478478;40;20573;-81
2021/05/10 02:21:44;;;;;;;5.15;3.85;;;;;;;;;;1472648;40;20419;-81
2021/05/10 02:23:07;;;;;;;4.15;3.42;;;;;;;;;;1473738;40;20471;-82
2021/05/10 02:24:08;;;;;;;5.32;3.42;;;;;;;;;;1474994;40;20412;-81
2021/05/10 02:25:23;;;;;;;4.45;3.38;;;;;;;;;;1474198;40;20422;-82
2021/05/10 02:26:24;;;;;;;6.63;3.15;;;;;;;;;;1471095;40;20406;-81
2021/05/10 02:27:25;;;;;;;6.72;3.60;;;;;;;;;;1474469;40;20419;-82
2021/05/10 02:28:29;;;;;;;5.40;3.53;;;;;;;;;;1473536;40;20436;-82
2021/05/10 02:29:31;;;;;;;4.88;3.10;;;;;;;;;;1473473;40;20493;-82
2021/05/10 02:30:33;;;;;;;7.25;3.20;;;;;;;;;;1472893;40;20472;-82
2021/05/10 02:31:34;;;;;;;7.22;3.42;;;;;;;;;;1470006;40;20430;-82
2021/05/10 02:32:38;;;;;;;4.40;3.05;;;;;;;;;;1468081;40;20421;-81
2021/05/10 02:33:39;;;;;;;7.22;3.35;;;;;;;;;;1470112;40;20413;-81
2021/05/10 02:34:40;;;;;;;5.43;3.03;;;;;;;;;;1474082;40;20412;-82
2021/05/10 02:35:43;;;;;;;3.95;3.47;;;;;;;;;;1469860;40;20430;-81
2021/05/10 02:36:44;;;;;;;5.80;3.22;;;;;;;;;;1470256;40;20417;-82
2021/05/10 02:37:46;;;;;;;5.80;3.28;;;;;;;;;;1466430;40;20410;-81
2021/05/10 02:38:47;;;;;;;4.95;3.60;;;;;;;;;;1467563;40;20425;-81
2021/05/10 02:39:48;;;;;;;4.13;2.95;;;;;;;;;;1471314;40;20801;-81
2021/05/10 02:40:50;;;;;;;5.93;3.25;;;;;;;;;;1467413;40;20425;-81
2021/05/10 02:41:51;;;;;;;5.28;3.30;;;;;;;;;;1473685;40;20446;-82
2021/05/10 02:42:52;;;;;;;6.57;3.22;;;;;;;;;;1477137;40;20437;-81
2021/05/10 02:43:53;;;;;;;4.82;3.00;;;;;;;;;;1473490;40;20669;-81
2021/05/10 02:44:55;;;;;;;9.43;3.25;;;;;;;;;;1468268;40;20431;-81
2021/05/10 02:45:56;;;;;;;3.72;2.70;;;;;;;;;;1469957;40;20425;-82
2021/05/10 02:46:57;;;;;;;6.40;3.08;;;;;;;;;;1473966;40;20482;-81
2021/05/10 02:47:58;;;;;;;5.70;3.22;;;;;;;;;;1465646;40;20430;-82
2021/05/10 02:49:00;;;;;;;3.70;2.88;;;;;;;;;;1465643;40;20399;-82
2021/05/10 02:50:03;;;;;;;6.53;3.38;;;;;;;;;;1469587;40;20410;-81
2021/05/10 02:51:04;;;;;;;4.47;2.90;;;;;;;;;;1465431;40;20410;-81
2021/05/10 02:52:05;;;;;;;4.90;2.83;;;;;;;;;;1461114;40;20416;-81
2021/05/10 02:53:07;;;;;;;5.65;2.72;;;;;;;;;;1465529;40;20784;-81
2021/05/10 02:54:08;;;;;;;6.45;3.30;;;;;;;;;;1467437;40;21067;-81
2021/05/10 02:55:10;;;;;;;5.57;3.05;;;;;;;;;;1469797;40;20410;-80
2021/05/10 02:56:11;;;;;;;5.93;2.58;;;;;;;;;;1471157;40;20421;-81
2021/05/10 02:57:12;;;;;;;5.32;2.83;;;;;;;;;;1470658;40;20449;-82
2021/05/10 02:58:13;;;;;;;3.45;3.15;;;;;;;;;;1477904;40;20652;-82
2021/05/10 02:59:14;;;;;;;4.67;2.50;;;;;;;;;;1479325;40;20413;-82
2021/05/10 03:00:21;;;;;;;5.35;2.67;;;;;;;;;;1476409;40;20832;-83
2021/05/10 03:01:22;;;;;;;5.45;3.30;;;;;;;;;;1475271;40;20634;-82
2021/05/10 03:02:23;;;;;;;4.60;3.10;;;;;;;;;;1475316;40;20412;-80
2021/05/10 03:03:25;;;;;;;4.15;3.03;;;;;;;;;;1470760;40;21060;-82
2021/05/10 03:04:26;;;;;;;5.90;3.30;;;;;;;;;;1470853;40;20397;-82
2021/05/10 03:05:27;;;;;;;5.18;2.72;;;;;;;;;;1475153;40;20412;-82
2021/05/10 03:06:28;;;;;;;8.27;3.00;;;;;;;;;;1470615;40;20967;-81
2021/05/10 03:07:29;;;;;;;3.08;2.60;;;;;;;;;;1470211;40;20416;-82
2021/05/10 03:08:30;;;;;;;5.80;2.88;;;;;;;;;;1478365;40;20548;-82
2021/05/10 03:09:34;;;;;;;6.47;2.70;;;;;;;;;;1477176;40;20770;-81
2021/05/10 03:10:35;;;;;;;3.35;3.05;;;;;;;;;;1478255;40;20917;-81
2021/05/10 03:11:36;;;;;;;4.25;2.72;;;;;;;;;;1474712;40;20689;-82
2021/05/10 03:12:37;;;;;;;4.28;2.38;;;;;;;;;;1474660;40;20758;-83
2021/05/10 03:13:38;;;;;;;5.88;2.38;;;;;;;;;;1476401;40;20413;-83
2021/05/10 03:14:40;;;;;;;5.85;2.85;;;;;;;;;;1474204;40;20890;-81
2021/05/10 03:15:41;;;;;;;5.05;2.92;;;;;;;;;;1474783;40;20419;-82
2021/05/10 03:16:42;;;;;;;5.93;3.17;;;;;;;;;;1465947;40;20856;-81
2021/05/10 03:17:43;;;;;;;4.05;3.00;;;;;;;;;;1461942;40;20849;-82
2021/05/10 03:18:44;;;;;;;4.55;2.78;;;;;;;;;;1474366;40;20467;-82
2021/05/10 03:19:45;;;;;;;6.15;3.10;;;;;;;;;;1474325;40;20666;-82
2021/05/10 03:20:47;;;;;;;5.95;2.47;;;;;;;;;;1473330;40;20762;-82
2021/05/10 03:21:48;;;;;;;6.25;3.10;;;;;;;;;;1474401;40;20474;-82
2021/05/10 03:22:52;;;;;;;4.80;2.35;;;;;;;;;;1478164;40;20425;-81
2021/05/10 03:23:54;;;;;;;4.53;2.25;;;;;;;;;;1470719;40;20415;-82
2021/05/10 03:24:56;;;;;;;4.93;2.40;;;;;;;;;;1469555;40;20421;-82
2021/05/10 03:25:57;;;;;;;3.75;2.45;;;;;;;;;;1468177;40;20399;-82
2021/05/10 03:26:58;;;;;;;3.53;2.40;;;;;;;;;;1465938;40;20463;-81
2021/05/10 03:27:59;;;;;;;2.67;2.07;;;;;;;;;;1470137;40;20551;-82
2021/05/10 03:29:01;;;;;;;5.10;2.33;;;;;;;;;;1470166;40;20409;-82
2021/05/10 03:30:02;;;;;;;5.90;3.45;;;;;;;;;;1478302;40;20414;-82
2021/05/10 03:31:03;;;;;;;7.95;2.78;;;;;;;;;;1474087;40;20404;-82
2021/05/10 03:32:05;;;;;;;4.93;2.40;;;;;;;;;;1474683;40;20407;-82
2021/05/10 03:33:07;;;;;;;3.97;2.40;;;;;;;;;;1478156;40;20403;-83
2021/05/10 03:34:09;;;;;;;4.00;2.80;;;;;;;;;;1479085;40;20801;-82
2021/05/10 03:35:11;;;;;;;3.03;1.97;;;;;;;;;;1474311;40;20562;-82
2021/05/10 03:36:12;;;;;;;5.47;2.22;;;;;;;;;;1475183;40;20682;-83
2021/05/10 03:37:13;;;;;;;4.45;2.35;;;;;;;;;;1479096;40;20680;-83
2021/05/10 03:38:14;;;;;;;5.45;2.60;;;;;;;;;;1476103;40;20406;-83
2021/05/10 03:39:15;;;;;;;5.07;2.63;;;;;;;;;;1481077;40;20431;-84
2021/05/10 03:40:17;;;;;;;3.90;2.55;;;;;;;;;;1484474;40;20422;-83
2021/05/10 03:41:19;;;;;;;4.72;2.40;;;;;;;;;;1480824;40;20416;-84
2021/05/10 03:42:20;;;;;;;6.38;2.50;;;;;;;;;;1484770;39;20440;-83
2021/05/10 03:43:21;;;;;;;4.25;2.33;;;;;;;;;;1484611;40;20446;-83
2021/05/10 03:44:23;;;;;;;4.00;2.72;;;;;;;;;;1484688;40;20402;-83
2021/05/10 03:45:24;;;;;;;4.73;3.00;;;;;;;;;;1484181;40;20443;-81
2021/05/10 03:46:26;;;;;;;4.40;2.55;;;;;;;;;;1471515;40;20418;-82
2021/05/10 03:47:38;;;;;;;3.95;2.28;;;;;;;;;;1471124;40;20797;-82
2021/05/10 03:48:40;;;;;;;4.30;2.08;;;;;;;;;;1479322;40;20391;-82
2021/05/10 03:49:41;;;;;;;4.55;2.38;;;;;;;;;;1474829;40;20427;-82
2021/05/10 03:50:42;;;;;;;6.60;3.25;;;;;;;;;;1474654;40;20804;-82
2021/05/10 03:51:43;;;;;;;3.85;1.95;;;;;;;;;;1474738;40;20776;-82
2021/05/10 03:52:46;;;;;;;4.20;2.00;;;;;;;;;;1470569;40;20442;-82
2021/05/10 03:53:47;;;;;;;3.70;1.92;;;;;;;;;;1469150;40;20421;-82
2021/05/10 03:54:49;;;;;;;2.53;2.00;;;;;;;;;;1473169;40;20440;-82
2021/05/10 03:55:50;;;;;;;3.65;1.90;;;;;;;;;;1472430;40;20414;-82
2021/05/10 03:56:51;;;;;;;5.57;2.30;;;;;;;;;;1470563;40;20421;-82
2021/05/10 03:57:53;;;;;;;3.83;1.90;;;;;;;;;;1471349;40;20482;-82
2021/05/10 03:58:54;;;;;;;3.20;1.88;;;;;;;;;;1474465;40;20415;-82
2021/05/10 03:59:55;;;;;;;5.53;1.63;;;;;;;;;;1469695;40;20413;-82
2021/05/10 04:00:56;;;;;;;5.00;1.50;;;;;;;;;;1469821;40;20410;-82
2021/05/10 04:02:01;;;;;;;2.42;1.67;;;;;;;;;;1473767;40;20433;-82
2021/05/10 04:03:04;;;;;;;3.92;1.90;;;;;;;;;;1474174;40;20423;-83
2021/05/10 04:05:33;;;;;;;5.70;1.65;;;;;;;;;;1471365;40;20410;-81
2021/05/10 04:07:49;;;;;;;2.40;1.30;;;;;;;;;;1474596;40;20388;-82
2021/05/10 04:14:10;;;;;;;4.68;1.67;;;;;;;;;;1471987;40;20405;-82
2021/05/10 04:15:12;;;;;;;3.75;2.00;;;;;;;;;;1474096;40;20389;-82
2021/05/10 04:16:13;;;;;;;2.75;1.75;;;;;;;;;;1465852;40;20415;-82
2021/05/10 04:17:14;;;;;;;3.67;1.80;;;;;;;;;;1465877;40;20415;-83
2021/05/10 04:18:16;;;;;;;2.92;2.05;;;;;;;;;;1469273;40;20517;-82
2021/05/10 04:19:18;;;;;;;4.40;1.85;;;;;;;;;;1469718;40;20418;-83
2021/05/10 04:20:19;;;;;;;4.68;1.90;;;;;;;;;;1470144;40;20409;-82
2021/05/10 04:21:20;;;;;;;4.00;1.73;;;;;;;;;;1469881;40;20467;-81
2021/05/10 04:22:21;;;;;;;2.55;1.95;;;;;;;;;;1469579;40;20430;-82
2021/05/10 04:23:23;;;;;;;3.90;1.70;;;;;;;;;;1466743;40;20743;-82
2021/05/10 04:24:25;;;;;;;3.78;2.10;;;;;;;;;;1468558;40;20682;-82
2021/05/10 04:25:26;;;;;;;2.50;1.65;;;;;;;;;;1469857;40;20421;-82
2021/05/10 04:26:27;;;;;;;4.75;1.80;;;;;;;;;;1470100;40;20405;-82
2021/05/10 04:27:28;;;;;;;4.25;1.70;;;;;;;;;;1469870;40;20457;-81
2021/05/10 04:28:30;;;;;;;3.90;2.35;;;;;;;;;;1478786;40;20407;-82
2021/05/10 04:29:31;;;;;;;6.30;2.72;;;;;;;;;;1478041;40;20417;-82
2021/05/10 04:30:33;;;;;;;5.22;2.65;;;;;;;;;;1473930;40;20420;-82
2021/05/10 04:31:34;;;;;;;5.63;3.10;;;;;;;;;;1474164;40;20416;-82
2021/05/10 04:32:35;;;;;;;3.28;2.45;;;;;;;;;;1469897;40;20943;-82
2021/05/10 04:33:38;;;;;;;3.38;2.72;;;;;;;;;;1470872;40;20803;-82
2021/05/10 04:34:39;;;;;;;6.22;2.70;;;;;;;;;;1475131;40;20495;-82
2021/05/10 04:35:43;;;;;;;3.58;2.88;;;;;;;;;;1476867;40;20410;-83
2021/05/10 04:36:44;;;;;;;5.70;3.88;;;;;;;;;;1465866;40;20415;-82
2021/05/10 04:37:45;;;;;;;5.72;3.97;;;;;;;;;;1465874;40;20408;-82
2021/05/10 04:38:46;;;;;;;6.03;4.30;;;;;;;;;;1471207;40;20568;-81
2021/05/10 04:39:47;;;;;;;7.93;3.75;;;;;;;;;;1473871;40;20423;-82
2021/05/10 04:40:48;;;;;;;6.47;3.88;;;;;;;;;;1476612;40;20412;-81
2021/05/10 04:41:49;;;;;;;5.53;3.58;;;;;;;;;;1469437;40;20512;-81
2021/05/10 04:42:50;;;;;;;5.78;3.40;;;;;;;;;;1469918;40;20405;-82
2021/05/10 04:43:52;;;;;;;6.05;3.20;;;;;;;;;;1470102;40;20477;-81
2021/05/10 04:44:53;;;;;;;7.63;3.70;;;;;;;;;;1469919;40;20437;-81
2021/05/10 04:45:58;;;;;;;3.20;2.83;;;;;;;;;;1469751;40;20414;-81
2021/05/10 04:46:59;;;;;;;5.55;2.78;;;;;;;;;;1470519;40;20413;-82
2021/05/10 04:48:02;;;;;;;4.50;2.88;;;;;;;;;;1472041;40;20859;-81
2021/05/10 04:49:03;;;;;;;3.75;2.67;;;;;;;;;;1469836;40;20719;-81
2021/05/10 04:50:06;;;;;;;6.25;2.80;;;;;;;;;;1474147;40;20419;-81
2021/05/10 04:51:07;;;;;;;3.70;2.53;;;;;;;;;;1478030;40;20429;-82
2021/05/10 04:52:08;;;;;;;3.90;2.83;;;;;;;;;;1473814;40;20674;-82
2021/05/10 04:53:11;;;;;;;5.18;2.42;;;;;;;;;;1474360;40;20403;-83
2021/05/10 04:54:12;;;;;;;4.47;1.90;;;;;;;;;;1472499;40;20411;-83
2021/05/10 04:55:13;;;;;;;3.70;2.40;;;;;;;;;;1474590;40;20817;-82
2021/05/10 04:56:15;;;;;;;4.75;2.10;;;;;;;;;;1477074;40;20430;-83
2021/05/10 04:57:16;;;;;;;4.60;2.35;;;;;;;;;;1478199;40;20799;-82
2021/05/10 04:58:17;;;;;;;5.45;2.20;;;;;;;;;;1469123;40;20417;-82
2021/05/10 04:59:18;;;;;;;4.28;2.22;;;;;;;;;;1470023;40;20857;-83
2021/05/10 05:00:20;;;;;;;2.00;1.45;;;;;;;;;;1476898;40;20404;-81
2021/05/10 05:01:21;;;;;;;3.65;1.55;;;;;;;;;;1478860;40;20414;-82
2021/05/10 05:02:22;;;;;;;2.10;1.65;;;;;;;;;;1477399;40;20414;-81
2021/05/10 05:03:24;;;;;;;4.00;1.55;;;;;;;;;;1474567;40;20400;-82
2021/05/10 05:04:25;;;;;;;2.30;1.40;;;;;;;;;;1478103;40;20883;-82
2021/05/10 05:05:26;;;;;;;2.53;0.82;;;;;;;;;;1473700;40;20913;-81
2021/05/10 05:06:27;;;;;;;3.35;1.02;;;;;;;;;;1473569;40;20487;-82
2021/05/10 05:07:28;;;;;;;1.52;0.82;;;;;;;;;;1479014;40;20417;-82
2021/05/10 05:08:29;;;;;;;3.45;0.93;;;;;;;;;;1478405;40;20402;-82
2021/05/10 05:09:30;;;;;;;5.45;1.30;;;;;;;;;;1476824;40;20807;-81
2021/05/10 05:10:31;;;;;;;3.47;0.88;;;;;;;;;;1478419;40;20410;-82
2021/05/10 05:11:33;;;;;;;3.20;0.77;;;;;;;;;;1474446;40;20424;-82
2021/05/10 05:12:37;;;;;;;2.40;0.80;;;;;;;;;;1470300;40;20425;-82
2021/05/10 05:13:39;;;;;;;3.58;1.45;;;;;;;;;;1470530;40;20414;-82
2021/05/10 05:14:40;;;;;;;3.42;0.90;;;;;;;;;;1474075;40;20419;-81
2021/05/10 05:15:41;;;;;;;1.57;0.90;;;;;;;;;;1474550;40;20491;-81
2021/05/10 05:16:42;;;;;;;2.03;0.85;;;;;;;;;;1474296;40;20396;-82
2021/05/10 05:17:44;;;;;;;3.47;1.25;;;;;;;;;;1469507;40;20414;-81
2021/05/10 05:18:45;;;;;;;5.30;1.50;;;;;;;;;;1469936;40;20422;-83
2021/05/10 05:19:46;;;;;;;5.07;1.50;;;;;;;;;;1469497;40;20586;-81
2021/05/10 05:20:47;;;;;;;3.65;1.38;;;;;;;;;;1474045;40;21010;-82
2021/05/10 05:21:48;;;;;;;6.28;1.75;;;;;;;;;;1473969;40;20416;-81
2021/05/10 05:22:50;;;;;;;3.72;2.10;;;;;;;;;;1469779;40;20985;-81
2021/05/10 05:23:51;;;;;;;3.60;2.15;;;;;;;;;;1472440;40;20412;-81
2021/05/10 05:24:56;;;;;;;3.60;1.93;;;;;;;;;;1476141;40;20662;-83
2021/05/10 05:25:59;;;;;;;3.63;1.48;;;;;;;;;;1476085;40;20423;-81
2021/05/10 05:27:02;;;;;;;5.15;1.50;;;;;;;;;;1478766;40;20397;-82
2021/05/10 05:28:03;;;;;;;4.22;1.80;;;;;;;;;;1473477;40;20400;-81
2021/05/10 05:29:04;;;;;;;5.07;1.73;;;;;;;;;;1472737;40;20442;-81
2021/05/10 05:30:09;;;;;;;6.45;2.00;;;;;;;;;;1473073;40;20825;-81
2021/05/10 05:31:10;;;;;;;4.82;2.08;;;;;;;;;;1474139;40;20447;-81
2021/05/10 05:32:11;;;;;;;3.83;2.28;;;;;;;;;;1474989;40;20686;-81
2021/05/10 05:33:12;;;;;;;4.27;2.40;;;;;;;;;;1478686;40;20794;-81
2021/05/10 05:34:13;;;;;;;4.07;2.30;;;;;;;;;;1473599;40;20761;-82
2021/05/10 05:35:15;;;;;;;6.65;2.20;;;;;;;;;;1470011;40;20408;-82
2021/05/10 05:36:16;;;;;;;4.68;2.35;;;;;;;;;;1473890;40;20407;-82
2021/05/10 05:37:17;;;;;;;7.03;2.40;;;;;;;;;;1478669;40;20398;-82
2021/05/10 05:38:19;;;;;;;4.47;2.40;;;;;;;;;;1474134;40;20820;-82
2021/05/10 05:39:20;;;;;;;4.07;1.50;;;;;;;;;;1475630;40;20418;-83
2021/05/10 05:40:24;;;;;;;3.58;2.08;;;;;;;;;;1469468;40;20497;-82
2021/05/10 05:41:26;;;;;;;3.63;2.10;;;;;;;;;;1470043;40;20417;-83
2021/05/10 05:42:27;;;;;;;5.22;1.83;;;;;;;;;;1475155;40;20445;-81
2021/05/10 05:43:29;;;;;;;3.97;1.40;;;;;;;;;;1478249;40;20406;-82
2021/05/10 05:44:34;;;;;;;5.10;1.55;;;;;;;;;;1478307;40;20466;-82
2021/05/10 05:45:36;;;;;;;3.08;1.27;;;;;;;;;;1474117;40;20428;-82
2021/05/10 05:46:41;;;;;;;2.60;0.80;;;;;;;;;;1469843;40;20433;-82
2021/05/10 05:47:43;;;;;;;2.38;1.38;;;;;;;;;;1470247;40;20822;-81
2021/05/10 05:48:44;;;;;;;2.38;1.27;;;;;;;;;;1474197;40;20404;-82
2021/05/10 05:49:46;;;;;;;2.30;1.33;;;;;;;;;;1473368;40;20705;-82
2021/05/10 05:50:47;;;;;;;3.65;1.30;;;;;;;;;;1469884;40;20536;-82
2021/05/10 05:51:48;;;;;;;2.97;1.00;;;;;;;;;;1471453;40;20404;-82
2021/05/10 05:52:49;;;;;;;2.28;1.00;;;;;;;;;;1478133;40;20426;-82
2021/05/10 05:53:55;;;;;;;2.78;0.82;;;;;;;;;;1472537;40;20388;-82
2021/05/10 05:54:56;;;;;;;3.20;0.80;;;;;;;;;;1473309;40;20717;-82
2021/05/10 05:56:00;;;;;;;2.30;0.80;;;;;;;;;;1476107;40;20420;-82
2021/05/10 05:57:01;;;;;;;4.03;1.00;;;;;;;;;;1474290;40;20404;-82
2021/05/10 05:58:02;;;;;;;1.60;0.90;;;;;;;;;;1473621;40;20827;-82
2021/05/10 05:59:04;;;;;;;2.50;1.20;;;;;;;;;;1473971;40;20411;-82
2021/05/10 06:00:06;;;;;;;2.55;0.90;;;;;;;;;;1473643;40;20865;-82
2021/05/10 06:01:07;;;;;;;3.25;0.90;;;;;;;;;;1471975;40;20453;-82
2021/05/10 06:02:08;;;;;;;2.67;1.00;;;;;;;;;;1470449;40;20417;-82
2021/05/10 06:03:09;;;;;;;2.83;1.08;;;;;;;;;;1472783;40;20415;-84
2021/05/10 06:04:10;;;;;;;2.15;1.10;;;;;;;;;;1474097;40;20474;-82
2021/05/10 06:05:13;;;;;;;3.05;1.40;;;;;;;;;;1466041;40;20427;-82
2021/05/10 06:06:19;;;;;;;2.85;1.40;;;;;;;;;;1466778;40;20411;-82
2021/05/10 06:07:21;;;;;;;2.00;1.60;;;;;;;;;;1473247;40;20413;-81
2021/05/10 06:08:22;;;;;;;5.00;1.80;;;;;;;;;;1471189;40;20438;-83
2021/05/10 06:09:25;;;;;;;3.80;2.42;;;;;;;;;;1473190;40;20424;-82
2021/05/10 06:10:28;;;;;;;2.58;2.38;;;;;;;;;;1471551;40;20435;-82
2021/05/10 06:11:29;;;;;;;3.08;2.30;;;;;;;;;;1468384;40;20472;-82
2021/05/10 06:12:30;;;;;;;4.22;2.35;;;;;;;;;;1472171;40;20462;-82
2021/05/10 06:13:34;;;;;;;3.97;1.77;;;;;;;;;;1466148;40;20428;-81
2021/05/10 06:14:35;;;;;;;2.78;1.80;;;;;;;;;;1470056;40;20538;-83
2021/05/10 06:15:36;;;;;;;4.50;1.67;;;;;;;;;;1477800;40;20412;-82
2021/05/10 06:16:37;;;;;;;4.00;1.77;;;;;;;;;;1480635;40;20564;-81
2021/05/10 06:17:40;;;;;;;2.08;1.48;;;;;;;;;;1479371;40;20414;-81
2021/05/10 06:18:42;;;;;;;2.90;1.80;;;;;;;;;;1478597;40;20399;-82